Varmdo — SMXZ — position and weather

sailwx.info

Track history (hours):
 
Tides and Currents Weather Stations Pressure Air Temp Water Temp Dewpoint Dewpoint Depression Visibility Wind Speed Wind Dir Waves Ship Positions

Varmdo

Last reported at 2016-Jul-24 20:14 UTC. Time now 2016-Jul-25 06:17 UTC.
Position N 59°20' E 018°12'.

Length 38 m; draft 2.5 m.

Type: Passenger vessel. MMSI: 265520390.

Date/timePositionNaut miles runAvg speedWind from/ knotsBaromVisibWave heightAir tempDewpointWater temp
2016-Jul-24 20:14N 59°20' E 018°12'2 2.8
2016-Jul-24 19:32N 59°19' E 018°09'1 0.2
2016-Jul-24 13:09N 59°19' E 018°07'1 2.0
2016-Jul-24 12:32N 59°20' E 018°05'0 0.0
2016-Jul-24 09:33N 59°20' E 018°05'0 0.1
2016-Jul-24 08:33N 59°20' E 018°05'0 0.0
2016-Jul-24 07:33N 59°20' E 018°05'0 0.0
2016-Jul-24 06:33N 59°20' E 018°05'0 0.0
2016-Jul-24 05:33N 59°20' E 018°05'0 0.0
2016-Jul-24 04:33N 59°20' E 018°05'0 0.0
2016-Jul-24 03:33N 59°20' E 018°05'0 0.0
2016-Jul-24 02:33N 59°20' E 018°05'0 0.0
2016-Jul-24 01:33N 59°20' E 018°05'0 0.0
2016-Jul-24 00:33N 59°20' E 018°05'0 0.0
2016-Jul-23 23:33N 59°20' E 018°05'0 0.0
2016-Jul-23 22:33N 59°20' E 018°05'0 0.0
2016-Jul-23 21:33N 59°20' E 018°05'0 0.0
2016-Jul-23 20:33N 59°20' E 018°05'0 0.0
2016-Jul-23 19:33N 59°20' E 018°05'0 0.0
2016-Jul-23 18:33N 59°20' E 018°05'0 0.0
2016-Jul-23 17:33N 59°20' E 018°05'0 0.2
2016-Jul-23 16:33N 59°20' E 018°05'0 0.0
2016-Jul-23 06:33N 59°19' E 018°05'0 0.1
2016-Jul-23 04:32N 59°20' E 018°05'0 0.0
2016-Jul-23 03:32N 59°20' E 018°05'0 0.0
2016-Jul-23 02:32N 59°20' E 018°05'0 0.0
2016-Jul-23 01:32N 59°20' E 018°05'0 0.0
2016-Jul-23 00:32N 59°20' E 018°05'0 0.0
2016-Jul-22 23:32N 59°20' E 018°05'0 0.0
2016-Jul-22 22:32N 59°20' E 018°05'0 0.0
2016-Jul-22 21:32N 59°20' E 018°05'0 0.3
2016-Jul-22 20:32N 59°19' E 018°05'0 0.0
2016-Jul-22 14:33N 59°19' E 018°05'0 0.3
2016-Jul-22 13:33N 59°20' E 018°05'0 0.0
2016-Jul-22 04:30N 59°20' E 018°04'0 0.0
2016-Jul-22 03:33N 59°20' E 018°04'0 0.0
2016-Jul-22 02:33N 59°20' E 018°04'0 0.0
2016-Jul-22 01:33N 59°20' E 018°04'0 0.0
2016-Jul-22 00:33N 59°20' E 018°04'0 0.0
2016-Jul-21 23:30N 59°20' E 018°04'0 0.0
2016-Jul-21 22:30N 59°20' E 018°04'0 0.0
2016-Jul-21 21:30N 59°20' E 018°04'0 0.0
2016-Jul-21 20:33N 59°20' E 018°04'0 0.0
2016-Jul-21 19:30N 59°20' E 018°04'0 0.0
2016-Jul-21 18:33N 59°20' E 018°04'0 0.3
2016-Jul-21 17:30N 59°19' E 018°05'0 0.0
2016-Jul-21 09:33N 59°19' E 018°05'0 0.4
2016-Jul-21 08:32N 59°20' E 018°05'4 0.2
2016-Jul-20 15:29N 59°20' E 018°12'4 4.2
2016-Jul-20 14:33N 59°20' E 018°05'0 0.1
2016-Jul-20 06:34N 59°19' E 018°05'0 0.5
2016-Jul-20 05:33N 59°20' E 018°05'0 0.0
2016-Jul-20 04:33N 59°20' E 018°05'0 0.0
2016-Jul-20 02:33N 59°20' E 018°05'0 0.0
2016-Jul-20 01:30N 59°20' E 018°05'0 0.0
2016-Jul-20 00:30N 59°20' E 018°05'0 0.0
2016-Jul-19 23:28N 59°20' E 018°05'0 0.0
2016-Jul-19 21:04N 59°20' E 018°05'0 0.0
2016-Jul-19 20:32N 59°20' E 018°05'0 0.0
2016-Jul-19 14:33N 59°19' E 018°05'0 0.1
2016-Jul-19 12:30N 59°20' E 018°04'0 0.0
2016-Jul-19 11:24N 59°20' E 018°04'0 0.0
2016-Jul-19 10:30N 59°20' E 018°04'0 0.0
2016-Jul-19 09:30N 59°20' E 018°04'0 0.0
2016-Jul-19 08:27N 59°20' E 018°04'0 0.0
2016-Jul-18 13:32N 59°19' E 018°05'3 2.9
2016-Jul-18 12:30N 59°20' E 018°11'1 0.3
2016-Jul-18 08:09N 59°20' E 018°12'4 5.3
2016-Jul-18 07:23N 59°20' E 018°05'0 0.0
2016-Jul-18 06:23N 59°20' E 018°05'3 3.5
2016-Jul-18 05:28N 59°20' E 018°11'3 0.3
2016-Jul-17 19:33N 59°20' E 018°05'4 0.6
2016-Jul-17 13:23N 59°20' E 018°12'4 3.0
2016-Jul-17 12:03N 59°20' E 018°05'4 1.0
2016-Jul-17 08:22N 59°20' E 018°12'4 1.9
2016-Jul-17 06:26N 59°20' E 018°05'0 0.0
2016-Jul-16 18:08N 59°20' E 018°05'0 0.0
2016-Jul-16 16:31N 59°20' E 018°05'0 0.0
2016-Jul-16 06:34N 59°20' E 018°05'0 0.1
2016-Jul-16 04:32N 59°20' E 018°05'0 0.0
2016-Jul-16 03:32N 59°20' E 018°05'0 0.0
2016-Jul-16 02:32N 59°20' E 018°05'0 0.0
2016-Jul-16 01:32N 59°20' E 018°05'0 0.0
2016-Jul-16 00:32N 59°20' E 018°05'0 0.0
2016-Jul-15 23:32N 59°20' E 018°05'0 0.0
2016-Jul-15 22:32N 59°20' E 018°05'0 0.0
2016-Jul-15 21:32N 59°20' E 018°05'0 0.0
2016-Jul-15 20:32N 59°20' E 018°05'0 0.0
2016-Jul-15 14:33N 59°20' E 018°05'0 0.2
2016-Jul-15 13:33N 59°20' E 018°05'4 0.5
2016-Jul-15 06:24N 59°20' E 018°12'4 4.6
2016-Jul-15 05:32N 59°20' E 018°04'0 0.0
2016-Jul-15 04:32N 59°20' E 018°04'0 0.0
2016-Jul-15 03:32N 59°20' E 018°04'0 0.0
2016-Jul-15 02:29N 59°20' E 018°04'0 0.0
2016-Jul-15 01:32N 59°20' E 018°04'0 0.0
2016-Jul-15 00:32N 59°20' E 018°04'0 0.0
2016-Jul-14 23:32N 59°20' E 018°04'0 0.0
2016-Jul-14 22:32N 59°20' E 018°04'0 0.0
2016-Jul-14 21:32N 59°20' E 018°04'0 0.0
2016-Jul-14 20:32N 59°20' E 018°04'  
Track history (hours):
 
Tides and Currents Weather Stations Pressure Air Temp Water Temp Dewpoint Dewpoint Depression Visibility Wind Speed Wind Dir Waves Ship Positions

Varmdo

Last reported at 2016-Jul-24 20:14 UTC. Time now 2016-Jul-25 06:17 UTC.
Position N 59°20' E 018°12'.

Length 38 m; draft 2.5 m.

Type: Passenger vessel. MMSI: 265520390.

Date/timePositionNaut miles runAvg speedWind from/ knotsBaromVisibWave heightAir tempDewpointWater temp
2016-Jul-24 20:14N 59°20' E 018°12'2 2.8
2016-Jul-24 19:32N 59°19' E 018°09'1 0.2
2016-Jul-24 13:09N 59°19' E 018°07'1 2.0
2016-Jul-24 12:32N 59°20' E 018°05'0 0.0
2016-Jul-24 09:33N 59°20' E 018°05'0 0.1
2016-Jul-24 08:33N 59°20' E 018°05'0 0.0
2016-Jul-24 07:33N 59°20' E 018°05'0 0.0
2016-Jul-24 06:33N 59°20' E 018°05'0 0.0
2016-Jul-24 05:33N 59°20' E 018°05'0 0.0
2016-Jul-24 04:33N 59°20' E 018°05'0 0.0
2016-Jul-24 03:33N 59°20' E 018°05'0 0.0
2016-Jul-24 02:33N 59°20' E 018°05'0 0.0
2016-Jul-24 01:33N 59°20' E 018°05'0 0.0
2016-Jul-24 00:33N 59°20' E 018°05'0 0.0
2016-Jul-23 23:33N 59°20' E 018°05'0 0.0
2016-Jul-23 22:33N 59°20' E 018°05'0 0.0
2016-Jul-23 21:33N 59°20' E 018°05'0 0.0
2016-Jul-23 20:33N 59°20' E 018°05'0 0.0
2016-Jul-23 19:33N 59°20' E 018°05'0 0.0
2016-Jul-23 18:33N 59°20' E 018°05'0 0.0
2016-Jul-23 17:33N 59°20' E 018°05'0 0.2
2016-Jul-23 16:33N 59°20' E 018°05'0 0.0
2016-Jul-23 06:33N 59°19' E 018°05'0 0.1
2016-Jul-23 04:32N 59°20' E 018°05'0 0.0
2016-Jul-23 03:32N 59°20' E 018°05'0 0.0
2016-Jul-23 02:32N 59°20' E 018°05'0 0.0
2016-Jul-23 01:32N 59°20' E 018°05'0 0.0
2016-Jul-23 00:32N 59°20' E 018°05'0 0.0
2016-Jul-22 23:32N 59°20' E 018°05'0 0.0
2016-Jul-22 22:32N 59°20' E 018°05'0 0.0
2016-Jul-22 21:32N 59°20' E 018°05'0 0.3
2016-Jul-22 20:32N 59°19' E 018°05'0 0.0
2016-Jul-22 14:33N 59°19' E 018°05'0 0.3
2016-Jul-22 13:33N 59°20' E 018°05'0 0.0
2016-Jul-22 04:30N 59°20' E 018°04'0 0.0
2016-Jul-22 03:33N 59°20' E 018°04'0 0.0
2016-Jul-22 02:33N 59°20' E 018°04'0 0.0
2016-Jul-22 01:33N 59°20' E 018°04'0 0.0
2016-Jul-22 00:33N 59°20' E 018°04'0 0.0
2016-Jul-21 23:30N 59°20' E 018°04'0 0.0
2016-Jul-21 22:30N 59°20' E 018°04'0 0.0
2016-Jul-21 21:30N 59°20' E 018°04'0 0.0
2016-Jul-21 20:33N 59°20' E 018°04'0 0.0
2016-Jul-21 19:30N 59°20' E 018°04'0 0.0
2016-Jul-21 18:33N 59°20' E 018°04'0 0.3
2016-Jul-21 17:30N 59°19' E 018°05'0 0.0
2016-Jul-21 09:33N 59°19' E 018°05'0 0.4
2016-Jul-21 08:32N 59°20' E 018°05'4 0.2
2016-Jul-20 15:29N 59°20' E 018°12'4 4.2
2016-Jul-20 14:33N 59°20' E 018°05'0 0.1
2016-Jul-20 06:34N 59°19' E 018°05'0 0.5
2016-Jul-20 05:33N 59°20' E 018°05'0 0.0
2016-Jul-20 04:33N 59°20' E 018°05'0 0.0
2016-Jul-20 02:33N 59°20' E 018°05'0 0.0
2016-Jul-20 01:30N 59°20' E 018°05'0 0.0
2016-Jul-20 00:30N 59°20' E 018°05'0 0.0
2016-Jul-19 23:28N 59°20' E 018°05'0 0.0
2016-Jul-19 21:04N 59°20' E 018°05'0 0.0
2016-Jul-19 20:32N 59°20' E 018°05'0 0.0
2016-Jul-19 14:33N 59°19' E 018°05'0 0.1
2016-Jul-19 12:30N 59°20' E 018°04'0 0.0
2016-Jul-19 11:24N 59°20' E 018°04'0 0.0
2016-Jul-19 10:30N 59°20' E 018°04'0 0.0
2016-Jul-19 09:30N 59°20' E 018°04'0 0.0
2016-Jul-19 08:27N 59°20' E 018°04'0 0.0
2016-Jul-18 13:32N 59°19' E 018°05'3 2.9
2016-Jul-18 12:30N 59°20' E 018°11'1 0.3
2016-Jul-18 08:09N 59°20' E 018°12'4 5.3
2016-Jul-18 07:23N 59°20' E 018°05'0 0.0
2016-Jul-18 06:23N 59°20' E 018°05'3 3.5
2016-Jul-18 05:28N 59°20' E 018°11'3 0.3
2016-Jul-17 19:33N 59°20' E 018°05'4 0.6
2016-Jul-17 13:23N 59°20' E 018°12'4 3.0
2016-Jul-17 12:03N 59°20' E 018°05'4 1.0
2016-Jul-17 08:22N 59°20' E 018°12'4 1.9
2016-Jul-17 06:26N 59°20' E 018°05'0 0.0
2016-Jul-16 18:08N 59°20' E 018°05'0 0.0
2016-Jul-16 16:31N 59°20' E 018°05'0 0.0
2016-Jul-16 06:34N 59°20' E 018°05'0 0.1
2016-Jul-16 04:32N 59°20' E 018°05'0 0.0
2016-Jul-16 03:32N 59°20' E 018°05'0 0.0
2016-Jul-16 02:32N 59°20' E 018°05'0 0.0
2016-Jul-16 01:32N 59°20' E 018°05'0 0.0
2016-Jul-16 00:32N 59°20' E 018°05'0 0.0
2016-Jul-15 23:32N 59°20' E 018°05'0 0.0
2016-Jul-15 22:32N 59°20' E 018°05'0 0.0
2016-Jul-15 21:32N 59°20' E 018°05'0 0.0
2016-Jul-15 20:32N 59°20' E 018°05'0 0.0
2016-Jul-15 14:33N 59°20' E 018°05'0 0.2
2016-Jul-15 13:33N 59°20' E 018°05'4 0.5
2016-Jul-15 06:24N 59°20' E 018°12'4 4.6
2016-Jul-15 05:32N 59°20' E 018°04'0 0.0
2016-Jul-15 04:32N 59°20' E 018°04'0 0.0
2016-Jul-15 03:32N 59°20' E 018°04'0 0.0
2016-Jul-15 02:29N 59°20' E 018°04'0 0.0
2016-Jul-15 01:32N 59°20' E 018°04'0 0.0
2016-Jul-15 00:32N 59°20' E 018°04'0 0.0
2016-Jul-14 23:32N 59°20' E 018°04'0 0.0
2016-Jul-14 22:32N 59°20' E 018°04'0 0.0
2016-Jul-14 21:32N 59°20' E 018°04'0 0.0
2016-Jul-14 20:32N 59°20' E 018°04'  

Dump ship's entire track history